Time;durP1;ratioP1;P1;durP2;ratioP2;P2;SDS_P1;SDS_P2;PMS_P1;PMS_P2;Temp;Humidity;BMP_temperature;BMP_pressure;BME280_temperature;BME280_humidity;BME280_pressure;Samples;Min_cycle;Max_cycle;Signal;HPM_P1;HPM_P2
2022/01/15 00:01:47;;;;;;;;;;;2.70;99.90;;;;;;5103671;28;19932;-80
2022/01/15 00:04:13;;;;;;;;;;;2.70;99.90;;;;;;4987670;28;19927;-81
2022/01/15 00:06:40;;;;;;;;;;;2.70;99.90;;;;;;4808196;29;19937;-83
2022/01/15 00:09:06;;;;;;;;;;;2.70;99.90;;;;;;4623062;30;19942;-85
2022/01/15 00:16:46;;;;;;;;;;;2.70;99.90;;;;;;5174721;27;19926;-85
2022/01/15 00:19:15;;;;;;;;;;;2.60;99.90;;;;;;5114501;27;19924;-81
2022/01/15 00:21:41;;;;;;;;;;;2.60;99.90;;;;;;5097659;28;19931;-83
2022/01/15 00:24:08;;;;;;;;;;;2.60;99.90;;;;;;5054293;28;19932;-80
2022/01/15 00:26:35;;;;;;;;;;;2.60;99.90;;;;;;5032528;28;19925;-80
2022/01/15 00:29:02;;;;;;;;;;;2.70;99.90;;;;;;4891042;28;19940;-81
2022/01/15 00:31:28;;;;;;;;;;;2.70;99.90;;;;;;4672705;29;19940;-85
2022/01/15 00:39:00;;;;;;;;;;;2.60;99.90;;;;;;5189605;27;19929;-80
2022/01/15 00:41:27;;;;;;;;;;;2.50;99.90;;;;;;5134359;28;19924;-80
2022/01/15 00:43:53;;;;;;;;;;;2.60;99.90;;;;;;5055753;28;19943;-81
2022/01/15 00:46:20;;;;;;;;;;;2.60;99.90;;;;;;5013893;28;19933;-84
2022/01/15 00:48:47;;;;;;;;;;;2.50;99.90;;;;;;4946513;28;19928;-80
2022/01/15 00:51:13;;;;;;;;;;;2.50;99.90;;;;;;4750718;29;19933;-80
2022/01/15 00:53:40;;;;;;;;;;;2.50;99.90;;;;;;4562859;30;19937;-79
2022/01/15 01:01:11;;;;;;;;;;;2.50;99.90;;;;;;5177196;27;19926;-79
2022/01/15 01:03:38;;;;;;;;;;;2.40;99.90;;;;;;5123959;27;19930;-81
2022/01/15 01:06:05;;;;;;;;;;;2.40;99.90;;;;;;5105360;28;19931;-85
2022/01/15 01:08:31;;;;;;;;;;;2.40;99.90;;;;;;5076505;28;19925;-80
2022/01/15 01:10:59;;;;;;;;;;;2.40;99.90;;;;;;4995012;28;19927;-81
2022/01/15 01:13:40;;;;;;;;;;;2.40;99.90;;;;;;4809057;29;19931;-80
2022/01/15 01:24:11;;;;;;;;;;;2.30;99.90;;;;;;5176541;27;19925;-79
2022/01/15 01:26:44;;;;;;;;;;;2.30;99.90;;;;;;5141280;27;19930;-81
2022/01/15 01:29:21;;;;;;;;;;;2.30;99.90;;;;;;5109162;28;19924;-82
2022/01/15 01:31:56;;;;;;;;;;;2.30;99.90;;;;;;5042602;28;19932;-81
2022/01/15 01:34:25;;;;;;;;;;;2.20;99.90;;;;;;4918823;28;19929;-81
2022/01/15 01:36:59;;;;;;;;;;;2.20;99.90;;;;;;4794081;29;19931;-85
2022/01/15 01:39:36;;;;;;;;;;;2.20;99.90;;;;;;4483380;30;19946;-84
2022/01/15 01:47:20;;;;;;;;;;;2.20;99.90;;;;;;5174165;27;19925;-84
2022/01/15 01:49:46;;;;;;;;;;;2.20;99.90;;;;;;5104749;27;19931;-83
2022/01/15 01:52:13;;;;;;;;;;;2.20;99.90;;;;;;5098505;28;19924;-83
2022/01/15 01:54:40;;;;;;;;;;;2.10;99.90;;;;;;5059406;28;19931;-84
2022/01/15 01:57:06;;;;;;;;;;;2.10;99.90;;;;;;4964094;28;19927;-82
2022/01/15 01:59:33;;;;;;;;;;;2.10;99.90;;;;;;4846883;29;19930;-83
2022/01/15 02:02:00;;;;;;;;;;;2.10;99.90;;;;;;4703909;29;19939;-81
2022/01/15 02:09:32;;;;;;;;;;;2.20;99.90;;;;;;5175413;27;19926;-81
2022/01/15 02:11:59;;;;;;;;;;;2.10;99.90;;;;;;5107069;27;19931;-80
2022/01/15 02:14:26;;;;;;;;;;;2.20;99.90;;;;;;5100791;28;19931;-82
2022/01/15 02:16:52;;;;;;;;;;;2.20;99.90;;;;;;5092772;28;19931;-84
2022/01/15 02:19:19;;;;;;;;;;;2.30;99.90;;;;;;5030199;28;19927;-79
2022/01/15 02:24:31;;;;;;;;;;;2.30;99.90;;;;;;4663186;30;19939;-80
2022/01/15 02:31:59;;;;;;;;;;;2.20;99.90;;;;;;5165263;27;19926;-80
2022/01/15 02:34:26;;;;;;;;;;;2.20;99.90;;;;;;5118029;27;19924;-85
2022/01/15 02:36:53;;;;;;;;;;;2.20;99.90;;;;;;5116460;27;19947;-83
2022/01/15 02:39:19;;;;;;;;;;;2.20;99.90;;;;;;5107542;28;19931;-80
2022/01/15 02:41:46;;;;;;;;;;;2.20;99.90;;;;;;4970015;28;19928;-81
2022/01/15 02:44:16;;;;;;;;;;;2.20;99.90;;;;;;4795206;29;19946;-82
2022/01/15 02:54:35;;;;;;;;;;;2.00;99.90;;;;;;5178168;27;19926;-80
2022/01/15 02:57:04;;;;;;;;;;;2.00;99.90;;;;;;5148346;27;19923;-79
2022/01/15 02:59:31;;;;;;;;;;;2.00;99.90;;;;;;5136360;28;19939;-81
2022/01/15 03:01:57;;;;;;;;;;;2.00;99.90;;;;;;5092462;28;19928;-79
2022/01/15 03:04:24;;;;;;;;;;;2.00;99.90;;;;;;5026700;28;19934;-81
2022/01/15 03:06:50;;;;;;;;;;;2.10;99.90;;;;;;4898111;28;19929;-84
2022/01/15 03:09:17;;;;;;;;;;;2.10;99.90;;;;;;4667323;29;19934;-82
2022/01/15 03:16:49;;;;;;;;;;;1.90;99.90;;;;;;5174908;27;19925;-85
2022/01/15 03:19:16;;;;;;;;;;;1.90;99.90;;;;;;5137147;27;19930;-83
2022/01/15 03:21:42;;;;;;;;;;;1.80;99.90;;;;;;5125265;27;19931;-80
2022/01/15 03:24:09;;;;;;;;;;;1.80;99.90;;;;;;5098616;28;19925;-85
2022/01/15 03:26:35;;;;;;;;;;;1.90;99.90;;;;;;5015797;28;19926;-83
2022/01/15 03:29:02;;;;;;;;;;;1.80;99.90;;;;;;4903739;28;19928;-82
2022/01/15 03:31:29;;;;;;;;;;;1.80;99.90;;;;;;4714891;29;19933;-85
2022/01/15 03:39:02;;;;;;;;;;;1.70;99.90;;;;;;5173826;27;19926;-84
2022/01/15 03:41:28;;;;;;;;;;;1.70;99.90;;;;;;5121325;28;19924;-81
2022/01/15 03:43:55;;;;;;;;;;;1.70;99.90;;;;;;5078679;28;19933;-82
2022/01/15 03:46:22;;;;;;;;;;;1.70;99.90;;;;;;5035725;28;19925;-84
2022/01/15 03:48:48;;;;;;;;;;;1.70;99.90;;;;;;4965811;28;19928;-82
2022/01/15 03:51:18;;;;;;;;;;;1.70;99.90;;;;;;4853756;29;19953;-82
2022/01/15 03:53:45;;;;;;;;;;;1.70;99.90;;;;;;4680440;29;19933;-81
2022/01/15 04:01:17;;;;;;;;;;;1.60;99.90;;;;;;5145214;27;19926;-84
2022/01/15 04:03:44;;;;;;;;;;;1.50;99.90;;;;;;5096050;28;19924;-83
2022/01/15 04:06:10;;;;;;;;;;;1.50;99.90;;;;;;5095586;28;21015;-84
2022/01/15 04:08:37;;;;;;;;;;;1.50;99.90;;;;;;5087110;28;19924;-83
2022/01/15 04:11:03;;;;;;;;;;;1.60;99.90;;;;;;5013376;28;19934;-84
2022/01/15 04:13:30;;;;;;;;;;;1.50;99.90;;;;;;4864779;29;19929;-83
2022/01/15 04:16:00;;;;;;;;;;;1.50;99.90;;;;;;4706165;29;19926;-88
2022/01/15 04:23:33;;;;;;;;;;;1.40;99.90;;;;;;5176915;27;19926;-81
2022/01/15 04:26:00;;;;;;;;;;;1.40;99.90;;;;;;5139282;27;19924;-84
2022/01/15 04:28:28;;;;;;;;;;;1.40;99.90;;;;;;5089465;28;20941;-86
2022/01/15 04:30:55;;;;;;;;;;;1.40;99.90;;;;;;5026441;28;19933;-87
2022/01/15 04:33:21;;;;;;;;;;;1.40;99.90;;;;;;4968860;28;19931;-87
2022/01/15 04:35:48;;;;;;;;;;;1.40;99.90;;;;;;4842507;29;19947;-86
2022/01/15 04:38:15;;;;;;;;;;;1.40;99.90;;;;;;4583314;30;19964;-82
2022/01/15 04:45:47;;;;;;;;;;;1.50;99.90;;;;;;5158403;27;19930;-83
2022/01/15 04:48:14;;;;;;;;;;;1.50;99.90;;;;;;5108414;27;19923;-81
2022/01/15 04:50:41;;;;;;;;;;;1.50;99.90;;;;;;5090679;27;19932;-82
2022/01/15 04:53:08;;;;;;;;;;;1.50;99.90;;;;;;5070719;28;19925;-79
2022/01/15 04:55:35;;;;;;;;;;;1.60;99.90;;;;;;5015353;28;19927;-79
2022/01/15 04:58:02;;;;;;;;;;;1.60;99.90;;;;;;4836851;29;19930;-79
2022/01/15 05:00:29;;;;;;;;;;;1.60;99.90;;;;;;4642981;29;19935;-80
2022/01/15 05:08:02;;;;;;;;;;;1.70;99.90;;;;;;5161478;27;19930;-84
2022/01/15 05:10:28;;;;;;;;;;;1.70;99.90;;;;;;5093077;27;19928;-84
2022/01/15 05:12:57;;;;;;;;;;;1.70;99.90;;;;;;5070113;28;19938;-85
2022/01/15 05:15:23;;;;;;;;;;;1.70;99.90;;;;;;5088026;28;19929;-80
2022/01/15 05:17:51;;;;;;;;;;;1.80;99.90;;;;;;5023424;28;19936;-80
2022/01/15 05:20:19;;;;;;;;;;;1.80;99.90;;;;;;4847114;29;19930;-84
2022/01/15 05:22:46;;;;;;;;;;;1.80;99.90;;;;;;4618859;30;19957;-82
2022/01/15 05:30:18;;;;;;;;;;;1.80;99.90;;;;;;5173628;27;19926;-83
2022/01/15 05:32:45;;;;;;;;;;;1.80;99.90;;;;;;5133365;27;19930;-83
2022/01/15 05:35:12;;;;;;;;;;;1.80;99.90;;;;;;5115211;27;19932;-81
2022/01/15 05:37:38;;;;;;;;;;;1.80;99.90;;;;;;5099341;28;19932;-84
2022/01/15 05:40:05;;;;;;;;;;;1.80;99.90;;;;;;5012404;28;19927;-82
2022/01/15 05:42:32;;;;;;;;;;;1.80;99.90;;;;;;4826431;29;19930;-80
2022/01/15 05:44:58;;;;;;;;;;;1.70;99.90;;;;;;4691144;30;19937;-80
2022/01/15 05:52:29;;;;;;;;;;;1.70;99.90;;;;;;5134312;27;19926;-81
2022/01/15 05:54:56;;;;;;;;;;;1.70;99.90;;;;;;5096286;28;19924;-84
2022/01/15 05:57:22;;;;;;;;;;;1.70;99.90;;;;;;5077904;28;19939;-79
2022/01/15 05:59:51;;;;;;;;;;;1.70;99.90;;;;;;5074145;28;19924;-79
2022/01/15 06:02:18;;;;;;;;;;;1.70;99.90;;;;;;4975673;28;19927;-81
2022/01/15 06:04:44;;;;;;;;;;;1.70;99.90;;;;;;4810286;29;19930;-85
2022/01/15 06:07:11;;;;;;;;;;;1.70;99.90;;;;;;4641428;30;19959;-78
2022/01/15 06:14:43;;;;;;;;;;;1.70;99.90;;;;;;5174272;27;19925;-81
2022/01/15 06:17:09;;;;;;;;;;;1.70;99.90;;;;;;5124461;27;19931;-82
2022/01/15 06:19:36;;;;;;;;;;;1.70;99.90;;;;;;5140681;27;19930;-81
2022/01/15 06:22:03;;;;;;;;;;;1.60;99.90;;;;;;5117652;28;19931;-80
2022/01/15 06:24:30;;;;;;;;;;;1.60;99.90;;;;;;5042653;28;19933;-84
2022/01/15 06:26:56;;;;;;;;;;;1.60;99.90;;;;;;4917137;29;19936;-84
2022/01/15 06:29:23;;;;;;;;;;;1.60;99.90;;;;;;4733228;29;19932;-84
2022/01/15 06:34:29;;;;;;;;;;;1.60;99.90;;;;;;5175164;27;19926;-82
2022/01/15 06:36:55;;;;;;;;;;;1.60;99.90;;;;;;5137272;27;19930;-83
2022/01/15 06:39:22;;;;;;;;;;;1.60;99.90;;;;;;5136667;27;19931;-84
2022/01/15 06:41:48;;;;;;;;;;;1.60;99.90;;;;;;5115669;28;19923;-82
2022/01/15 06:44:15;;;;;;;;;;;1.50;99.90;;;;;;5022176;28;19945;-85
2022/01/15 06:46:41;;;;;;;;;;;1.50;99.90;;;;;;4955271;28;19949;-81
2022/01/15 06:49:10;;;;;;;;;;;1.30;99.90;;;;;;4810770;28;19939;-87
2022/01/15 06:56:42;;;;;;;;;;;1.30;99.90;;;;;;5173868;27;19926;-83
2022/01/15 06:59:08;;;;;;;;;;;1.40;99.90;;;;;;5139572;27;19923;-84
2022/01/15 07:01:35;;;;;;;;;;;1.30;99.90;;;;;;5129840;27;19946;-80
2022/01/15 07:04:01;;;;;;;;;;;1.40;99.90;;;;;;5106596;28;19931;-80
2022/01/15 07:06:28;;;;;;;;;;;1.40;99.90;;;;;;5057966;28;19927;-83
2022/01/15 07:08:55;;;;;;;;;;;1.30;99.90;;;;;;4873085;29;19938;-80
2022/01/15 07:11:21;;;;;;;;;;;1.40;99.90;;;;;;4721753;30;19954;-84
2022/01/15 07:18:52;;;;;;;;;;;1.40;99.90;;;;;;5175190;27;19925;-80
2022/01/15 07:21:19;;;;;;;;;;;1.50;99.90;;;;;;5130437;27;19924;-83
2022/01/15 07:23:46;;;;;;;;;;;1.40;99.90;;;;;;5117907;27;19939;-79
2022/01/15 07:26:12;;;;;;;;;;;1.40;99.90;;;;;;5109268;28;19924;-80
2022/01/15 07:28:39;;;;;;;;;;;1.40;99.90;;;;;;5037143;28;19926;-79
2022/01/15 07:31:05;;;;;;;;;;;1.50;99.90;;;;;;4972725;28;19927;-82
2022/01/15 07:33:32;;;;;;;;;;;1.40;99.90;;;;;;4808027;29;19930;-80
2022/01/15 07:41:10;;;;;;;;;;;1.40;99.90;;;;;;5188857;27;19926;-85
2022/01/15 07:43:37;;;;;;;;;;;1.30;99.90;;;;;;5102689;27;19931;-81
2022/01/15 07:46:03;;;;;;;;;;;1.30;99.90;;;;;;5118048;27;19946;-84
2022/01/15 07:48:30;;;;;;;;;;;1.30;99.90;;;;;;5130840;27;19930;-81
2022/01/15 07:50:57;;;;;;;;;;;1.40;99.90;;;;;;5077289;28;19926;-80
2022/01/15 07:53:23;;;;;;;;;;;1.50;99.90;;;;;;4925653;28;19928;-79
2022/01/15 07:55:50;;;;;;;;;;;1.50;99.90;;;;;;4695963;30;19936;-80
2022/01/15 08:03:21;;;;;;;;;;;1.50;99.90;;;;;;5173319;27;19930;-82
2022/01/15 08:05:48;;;;;;;;;;;1.40;99.90;;;;;;5136902;27;19930;-81
2022/01/15 08:08:15;;;;;;;;;;;1.40;99.90;;;;;;5122545;27;19931;-84
2022/01/15 08:10:42;;;;;;;;;;;1.40;99.90;;;;;;5108258;28;19931;-80
2022/01/15 08:13:08;;;;;;;;;;;1.50;99.90;;;;;;5035097;28;19926;-82
2022/01/15 08:15:35;;;;;;;;;;;1.50;99.90;;;;;;4851608;29;19930;-84
2022/01/15 08:18:02;;;;;;;;;;;1.50;99.90;;;;;;4648858;29;19941;-83
2022/01/15 08:25:33;;;;;;;;;;;1.70;99.90;;;;;;5174367;27;19926;-83
2022/01/15 08:27:59;;;;;;;;;;;1.70;99.90;;;;;;5136927;27;19923;-85
2022/01/15 08:30:26;;;;;;;;;;;1.70;99.90;;;;;;5136463;27;19923;-83
2022/01/15 08:32:52;;;;;;;;;;;1.70;99.90;;;;;;5093102;28;19924;-84
2022/01/15 08:35:19;;;;;;;;;;;1.70;99.90;;;;;;5052230;28;19927;-84
2022/01/15 08:37:45;;;;;;;;;;;1.60;99.90;;;;;;4917044;28;19929;-84
2022/01/15 08:40:13;;;;;;;;;;;1.60;99.90;;;;;;4677197;29;19933;-83
2022/01/15 08:47:46;;;;;;;;;;;1.50;99.90;;;;;;5182610;27;19925;-86
2022/01/15 08:50:14;;;;;;;;;;;1.50;99.90;;;;;;5137358;27;19945;-84
2022/01/15 08:52:40;;;;;;;;;;;1.60;99.90;;;;;;5116852;27;19924;-86
2022/01/15 08:55:08;;;;;;;;;;;1.50;99.90;;;;;;5101044;28;19928;-85
2022/01/15 08:57:35;;;;;;;;;;;1.50;99.90;;;;;;5007367;28;19943;-84
2022/01/15 09:00:03;;;;;;;;;;;1.40;99.90;;;;;;4865542;29;19933;-84
2022/01/15 09:02:30;;;;;;;;;;;1.50;99.90;;;;;;4539058;30;19936;-82
2022/01/15 09:10:04;;;;;;;;;;;1.60;99.90;;;;;;5188118;27;19925;-83
2022/01/15 09:12:31;;;;;;;;;;;1.60;99.90;;;;;;5112352;27;19924;-87
2022/01/15 09:14:59;;;;;;;;;;;1.60;99.90;;;;;;5096095;28;19924;-82
2022/01/15 09:17:26;;;;;;;;;;;1.60;99.90;;;;;;5097769;28;19935;-83
2022/01/15 09:19:52;;;;;;;;;;;1.60;99.90;;;;;;5043345;28;19926;-89
2022/01/15 09:22:19;;;;;;;;;;;1.70;99.90;;;;;;4843822;29;19942;-89
2022/01/15 09:24:46;;;;;;;;;;;1.70;99.90;;;;;;4610644;30;19934;-85
2022/01/15 09:32:38;;;;;;;;;;;1.70;99.90;;;;;;5132736;27;19924;-85
2022/01/15 09:35:05;;;;;;;;;;;1.80;99.90;;;;;;5136983;27;19929;-85
2022/01/15 09:37:31;;;;;;;;;;;1.80;99.90;;;;;;5102699;28;19933;-84
2022/01/15 09:39:58;;;;;;;;;;;1.80;99.90;;;;;;4990150;28;19928;-84
2022/01/15 09:42:25;;;;;;;;;;;1.90;99.90;;;;;;4743182;29;19932;-85
2022/01/15 09:44:53;;;;;;;;;;;1.90;99.90;;;;;;4499764;31;19937;-82
2022/01/15 09:52:25;;;;;;;;;;;2.00;99.90;;;;;;5164426;27;19926;-82
2022/01/15 09:54:53;;;;;;;;;;;1.90;99.90;;;;;;5123436;27;19923;-81
2022/01/15 09:57:19;;;;;;;;;;;1.90;99.90;;;;;;5121396;28;19930;-81
2022/01/15 09:59:46;;;;;;;;;;;2.00;99.90;;;;;;5093563;28;19924;-81
2022/01/15 10:02:13;;;;;;;;;;;2.10;99.90;;;;;;4988626;28;19927;-81
2022/01/15 10:04:39;;;;;;;;;;;2.20;99.90;;;;;;4836217;29;19930;-87
2022/01/15 10:07:07;;;;;;;;;;;2.40;99.90;;;;;;4632756;29;19941;-84
2022/01/15 10:14:39;;;;;;;;;;;2.40;99.90;;;;;;5194528;27;19925;-85
2022/01/15 10:17:19;;;;;;;;;;;2.30;99.90;;;;;;5156257;27;19946;-84
2022/01/15 10:19:46;;;;;;;;;;;2.10;99.90;;;;;;5124457;27;19947;-85
2022/01/15 10:22:13;;;;;;;;;;;2.00;99.90;;;;;;5039564;28;19933;-81
2022/01/15 10:24:41;;;;;;;;;;;1.90;99.90;;;;;;4957406;28;19934;-82
2022/01/15 10:27:21;;;;;;;;;;;2.10;99.90;;;;;;4821980;29;19937;-85
2022/01/15 10:29:49;;;;;;;;;;;2.10;99.90;;;;;;4592511;30;19935;-83
2022/01/15 10:37:22;;;;;;;;;;;2.50;99.90;;;;;;5177758;27;19925;-89
2022/01/15 10:39:56;;;;;;;;;;;2.50;99.90;;;;;;5128079;27;19923;-88
2022/01/15 10:42:23;;;;;;;;;;;2.40;99.90;;;;;;5075229;28;19924;-83
2022/01/15 10:44:50;;;;;;;;;;;2.50;99.90;;;;;;5036774;28;19932;-86
2022/01/15 10:47:17;;;;;;;;;;;2.50;99.90;;;;;;5014251;28;19937;-86
2022/01/15 10:49:45;;;;;;;;;;;2.60;99.90;;;;;;4828460;28;19939;-83
2022/01/15 10:52:13;;;;;;;;;;;2.60;99.90;;;;;;4506445;30;19944;-83
2022/01/15 10:59:07;;;;;;;;;;;2.50;99.90;;;;;;5174185;27;19926;-82
2022/01/15 11:01:35;;;;;;;;;;;2.70;99.90;;;;;;5105642;27;19931;-85
2022/01/15 11:04:01;;;;;;;;;;;2.80;99.90;;;;;;5100404;27;19923;-80
2022/01/15 11:06:34;;;;;;;;;;;2.80;99.90;;;;;;5112065;28;19925;-82
2022/01/15 11:09:01;;;;;;;;;;;2.80;99.90;;;;;;5002299;28;19935;-81
2022/01/15 11:11:32;;;;;;;;;;;2.60;99.90;;;;;;4856234;29;19938;-85
2022/01/15 11:13:59;;;;;;;;;;;2.60;99.90;;;;;;4496289;30;19938;-81
2022/01/15 11:21:03;;;;;;;;;;;2.60;99.90;;;;;;5170140;27;19926;-85
2022/01/15 11:23:30;;;;;;;;;;;2.50;99.90;;;;;;5115924;27;19931;-83
2022/01/15 11:25:58;;;;;;;;;;;2.40;99.90;;;;;;5111946;28;19930;-83
2022/01/15 11:28:25;;;;;;;;;;;2.40;99.90;;;;;;5084949;28;19932;-85
2022/01/15 11:30:54;;;;;;;;;;;2.20;99.90;;;;;;4935350;28;19948;-83
2022/01/15 11:33:21;;;;;;;;;;;2.30;99.90;;;;;;4731849;29;19932;-85
2022/01/15 11:35:48;;;;;;;;;;;2.30;99.90;;;;;;4551200;30;19935;-83
2022/01/15 11:43:41;;;;;;;;;;;2.70;99.90;;;;;;5174167;27;19925;-83
2022/01/15 11:46:28;;;;;;;;;;;2.80;99.90;;;;;;5099981;27;19924;-83
2022/01/15 11:49:13;;;;;;;;;;;2.80;99.90;;;;;;5084643;28;19931;-84
2022/01/15 11:51:40;;;;;;;;;;;2.70;99.90;;;;;;5065754;28;19924;-83
2022/01/15 11:54:10;;;;;;;;;;;2.70;99.90;;;;;;4959342;28;19927;-82
2022/01/15 11:56:38;;;;;;;;;;;2.70;99.90;;;;;;4769282;29;19938;-81
2022/01/15 11:59:36;;;;;;;;;;;2.70;99.90;;;;;;4445343;31;19939;-83
2022/01/15 12:07:20;;;;;;;;;;;2.60;99.90;;;;;;5175411;27;19926;-82
2022/01/15 12:09:47;;;;;;;;;;;2.50;99.90;;;;;;5115150;27;19994;-83
2022/01/15 12:12:38;;;;;;;;;;;2.50;99.90;;;;;;5123945;27;19924;-84
2022/01/15 12:15:06;;;;;;;;;;;2.60;99.90;;;;;;5081861;28;19925;-84
2022/01/15 12:17:36;;;;;;;;;;;2.50;99.90;;;;;;4915127;28;19945;-85
2022/01/15 12:20:05;;;;;;;;;;;2.50;99.90;;;;;;4665598;29;19945;-85
2022/01/15 12:22:35;;;;;;;;;;;2.50;99.90;;;;;;4390514;31;19963;-83
2022/01/15 12:29:20;;;;;;;;;;;2.30;99.90;;;;;;5180188;27;19926;-81
2022/01/15 12:31:49;;;;;;;;;;;2.30;99.90;;;;;;5117095;28;19940;-86
2022/01/15 12:34:23;;;;;;;;;;;2.50;99.90;;;;;;5098614;28;19924;-84
2022/01/15 12:36:50;;;;;;;;;;;2.60;99.90;;;;;;5046890;28;19936;-84
2022/01/15 12:39:21;;;;;;;;;;;2.60;99.90;;;;;;4974159;28;19928;-84
2022/01/15 12:41:51;;;;;;;;;;;2.60;99.90;;;;;;4807093;29;19930;-84
2022/01/15 12:44:18;;;;;;;;;;;2.50;99.90;;;;;;4574014;30;19937;-82
2022/01/15 12:51:51;;;;;;;;;;;2.40;99.90;;;;;;5162093;27;19925;-89
2022/01/15 12:54:29;;;;;;;;;;;2.30;99.90;;;;;;5119894;27;19935;-86
2022/01/15 12:56:56;;;;;;;;;;;2.30;99.90;;;;;;5111913;28;19931;-87
2022/01/15 12:59:26;;;;;;;;;;;2.40;99.90;;;;;;5107261;28;19926;-85
2022/01/15 13:01:53;;;;;;;;;;;2.40;99.90;;;;;;5021500;28;19927;-84
2022/01/15 13:04:20;;;;;;;;;;;2.60;99.90;;;;;;4782422;28;19949;-84
2022/01/15 13:06:50;;;;;;;;;;;2.60;99.90;;;;;;4419695;30;20031;-85
2022/01/15 13:14:20;;;;;;;;;;;2.80;99.90;;;;;;5188526;27;19926;-82
2022/01/15 13:16:47;;;;;;;;;;;2.80;99.90;;;;;;5116402;28;19934;-81
2022/01/15 13:19:13;;;;;;;;;;;2.90;99.90;;;;;;5093978;28;19924;-86
2022/01/15 13:24:21;;;;;;;;;;;3.00;99.90;;;;;;4944050;28;19951;-88
2022/01/15 13:26:49;;;;;;;;;;;2.60;99.90;;;;;;4736261;29;19940;-87
2022/01/15 13:29:18;;;;;;;;;;;2.50;99.90;;;;;;4479862;30;19944;-87
2022/01/15 13:36:46;;;;;;;;;;;2.40;99.90;;;;;;5176385;27;19926;-87
2022/01/15 13:39:15;;;;;;;;;;;2.50;99.90;;;;;;5136356;27;19924;-85
2022/01/15 13:41:42;;;;;;;;;;;2.50;99.90;;;;;;5122187;28;19924;-84
2022/01/15 13:44:10;;;;;;;;;;;2.60;99.90;;;;;;5091404;28;19932;-86
2022/01/15 13:46:42;;;;;;;;;;;2.70;99.90;;;;;;5029234;28;19933;-83
2022/01/15 13:49:10;;;;;;;;;;;2.80;99.90;;;;;;4866679;29;19949;-83
2022/01/15 13:57:05;;;;;;;;;;;3.00;99.90;;;;;;5174284;27;19925;-85
2022/01/15 13:59:32;;;;;;;;;;;3.00;99.90;;;;;;5134735;27;19932;-83
2022/01/15 14:01:59;;;;;;;;;;;3.10;99.90;;;;;;5112127;28;19931;-85
2022/01/15 14:04:29;;;;;;;;;;;3.10;99.90;;;;;;5038810;28;19931;-86
2022/01/15 14:06:57;;;;;;;;;;;3.10;99.90;;;;;;4932237;28;19936;-86
2022/01/15 14:09:24;;;;;;;;;;;3.10;99.90;;;;;;4765786;29;19939;-85
2022/01/15 14:11:58;;;;;;;;;;;3.20;99.90;;;;;;4556774;30;19937;-88
2022/01/15 14:19:27;;;;;;;;;;;3.20;99.90;;;;;;5187415;27;19929;-87
2022/01/15 14:21:55;;;;;;;;;;;3.10;99.90;;;;;;5084829;28;19928;-88
2022/01/15 14:24:23;;;;;;;;;;;3.10;99.90;;;;;;5054816;28;19936;-83
2022/01/15 14:26:54;;;;;;;;;;;3.10;99.90;;;;;;5023308;28;19936;-86
2022/01/15 14:29:20;;;;;;;;;;;3.10;99.90;;;;;;4911487;28;19928;-87
2022/01/15 14:31:47;;;;;;;;;;;3.00;99.90;;;;;;4700303;29;19933;-84
2022/01/15 14:34:14;;;;;;;;;;;3.10;99.90;;;;;;4478115;31;19945;-84
2022/01/15 14:41:48;;;;;;;;;;;3.00;99.90;;;;;;5163988;27;19927;-84
2022/01/15 14:44:15;;;;;;;;;;;3.00;99.90;;;;;;5115245;27;19923;-85
2022/01/15 14:46:42;;;;;;;;;;;2.90;99.90;;;;;;5123495;27;19938;-86
2022/01/15 14:49:09;;;;;;;;;;;2.90;99.90;;;;;;5101931;28;19928;-85
2022/01/15 14:51:36;;;;;;;;;;;2.90;99.90;;;;;;4996591;28;19931;-83
2022/01/15 14:54:02;;;;;;;;;;;2.90;99.90;;;;;;4824364;29;19938;-83
2022/01/15 14:56:29;;;;;;;;;;;2.90;99.90;;;;;;4601077;30;19936;-81
2022/01/15 15:04:06;;;;;;;;;;;2.90;99.90;;;;;;5174162;27;19926;-80
2022/01/15 15:06:33;;;;;;;;;;;2.90;99.90;;;;;;5110573;27;19924;-84
2022/01/15 15:09:00;;;;;;;;;;;2.90;99.90;;;;;;5104513;28;19924;-83
2022/01/15 15:11:27;;;;;;;;;;;2.90;99.90;;;;;;5058213;28;19936;-81
2022/01/15 15:13:54;;;;;;;;;;;2.90;99.90;;;;;;5029722;28;19932;-80
2022/01/15 15:16:21;;;;;;;;;;;2.90;99.90;;;;;;4919124;28;19941;-81
2022/01/15 15:18:48;;;;;;;;;;;2.90;99.90;;;;;;4621566;30;19942;-81
2022/01/15 15:26:20;;;;;;;;;;;2.90;99.90;;;;;;5176665;27;19925;-85
2022/01/15 15:28:49;;;;;;;;;;;2.90;99.90;;;;;;5137218;27;19930;-83
2022/01/15 15:31:16;;;;;;;;;;;2.90;99.90;;;;;;5110350;28;19931;-83
2022/01/15 15:33:45;;;;;;;;;;;2.90;99.90;;;;;;5075439;28;19936;-86
2022/01/15 15:36:12;;;;;;;;;;;3.00;99.90;;;;;;5005612;28;19927;-85
2022/01/15 15:38:40;;;;;;;;;;;3.00;99.90;;;;;;4876482;28;19947;-83
2022/01/15 15:41:08;;;;;;;;;;;3.10;99.90;;;;;;4668582;30;19940;-82
2022/01/15 15:48:41;;;;;;;;;;;3.00;99.90;;;;;;5175303;27;19926;-85
2022/01/15 15:51:07;;;;;;;;;;;3.10;99.90;;;;;;5138575;27;19930;-85
2022/01/15 15:53:34;;;;;;;;;;;3.00;99.90;;;;;;5138686;27;19931;-85
2022/01/15 15:56:01;;;;;;;;;;;3.00;99.90;;;;;;5117307;27;19931;-84
2022/01/15 15:58:29;;;;;;;;;;;3.00;99.90;;;;;;5079051;28;19925;-87
2022/01/15 16:00:55;;;;;;;;;;;3.00;99.90;;;;;;4881239;29;19929;-86
2022/01/15 16:03:22;;;;;;;;;;;3.10;99.90;;;;;;4573096;30;19937;-83
2022/01/15 16:09:24;;;;;;;;;;;3.10;99.90;;;;;;5177547;27;19925;-84
2022/01/15 16:11:50;;;;;;;;;;;3.10;99.90;;;;;;5118717;28;19931;-87
2022/01/15 16:14:18;;;;;;;;;;;3.10;99.90;;;;;;5109205;28;19931;-88
2022/01/15 16:16:45;;;;;;;;;;;3.10;99.90;;;;;;5074817;28;19925;-84
2022/01/15 16:19:12;;;;;;;;;;;3.10;99.90;;;;;;4993604;28;19933;-83
2022/01/15 16:21:38;;;;;;;;;;;3.00;99.90;;;;;;4877422;29;19930;-84
2022/01/15 16:24:05;;;;;;;;;;;2.90;99.90;;;;;;4744379;29;19942;-84
2022/01/15 16:29:12;;;;;;;;;;;3.00;99.90;;;;;;5176220;27;19926;-83
2022/01/15 16:31:38;;;;;;;;;;;3.00;99.90;;;;;;5130161;27;19923;-87
2022/01/15 16:34:06;;;;;;;;;;;3.00;99.90;;;;;;5117095;27;19932;-84
2022/01/15 16:36:34;;;;;;;;;;;3.00;99.90;;;;;;5116475;27;19931;-83
2022/01/15 16:39:01;;;;;;;;;;;3.00;99.90;;;;;;5078658;28;19930;-83
2022/01/15 16:41:31;;;;;;;;;;;3.00;99.90;;;;;;4967148;28;19928;-85
2022/01/15 16:43:57;;;;;;;;;;;3.00;99.90;;;;;;4830788;29;19930;-86
2022/01/15 16:46:25;;;;;;;;;;;3.00;99.90;;;;;;4619389;29;19957;-88
2022/01/15 16:53:58;;;;;;;;;;;3.00;99.90;;;;;;5175794;27;19930;-85
2022/01/15 16:56:25;;;;;;;;;;;2.90;99.90;;;;;;5121825;27;19930;-85
2022/01/15 16:58:51;;;;;;;;;;;2.90;99.90;;;;;;5136754;27;19935;-82
2022/01/15 17:01:18;;;;;;;;;;;2.90;99.90;;;;;;5104560;28;19924;-87
2022/01/15 17:03:45;;;;;;;;;;;3.00;99.90;;;;;;5050841;28;19930;-85
2022/01/15 17:06:11;;;;;;;;;;;2.90;99.90;;;;;;4867385;29;19936;-82
2022/01/15 17:08:38;;;;;;;;;;;2.90;99.90;;;;;;4671820;29;19934;-80
2022/01/15 17:13:45;;;;;;;;;;;3.00;99.90;;;;;;5174785;27;19926;-86
2022/01/15 17:16:12;;;;;;;;;;;3.00;99.90;;;;;;5131447;27;19935;-81
2022/01/15 17:18:39;;;;;;;;;;;3.00;99.90;;;;;;5115143;28;19931;-81
2022/01/15 17:21:06;;;;;;;;;;;3.10;99.90;;;;;;5062057;28;19951;-82
2022/01/15 17:23:32;;;;;;;;;;;3.00;99.90;;;;;;4998328;28;19926;-83
2022/01/15 17:25:59;;;;;;;;;;;3.00;99.90;;;;;;4786021;29;19930;-85
2022/01/15 17:28:26;;;;;;;;;;;3.00;99.90;;;;;;4691754;30;19932;-84
2022/01/15 17:35:58;;;;;;;;;;;3.10;99.90;;;;;;5182464;27;19941;-86
2022/01/15 17:38:25;;;;;;;;;;;3.00;99.90;;;;;;5138657;27;19931;-87
2022/01/15 17:40:52;;;;;;;;;;;3.00;99.90;;;;;;5121093;28;19932;-86
2022/01/15 17:43:19;;;;;;;;;;;3.10;99.90;;;;;;5065756;28;19952;-85
2022/01/15 17:45:46;;;;;;;;;;;3.10;99.90;;;;;;4969830;28;19922;-89
2022/01/15 17:48:13;;;;;;;;;;;3.10;99.90;;;;;;4774815;29;19938;-82
2022/01/15 17:50:40;;;;;;;;;;;3.10;99.90;;;;;;4511988;30;19937;-84
2022/01/15 17:58:12;;;;;;;;;;;3.10;99.90;;;;;;5183437;27;19926;-88
2022/01/15 18:00:39;;;;;;;;;;;3.10;99.90;;;;;;5135949;27;19923;-85
2022/01/15 18:03:06;;;;;;;;;;;3.00;99.90;;;;;;5117447;27;19952;-86
2022/01/15 18:05:33;;;;;;;;;;;3.00;99.90;;;;;;5093116;28;19924;-84
2022/01/15 18:07:59;;;;;;;;;;;3.00;99.90;;;;;;4947370;28;19929;-83
2022/01/15 18:10:27;;;;;;;;;;;3.00;99.90;;;;;;4709311;29;19941;-87
2022/01/15 18:12:55;;;;;;;;;;;3.00;99.90;;;;;;4457144;31;19941;-82
2022/01/15 18:20:26;;;;;;;;;;;3.00;99.90;;;;;;5173825;27;19925;-87
2022/01/15 18:22:53;;;;;;;;;;;2.90;99.90;;;;;;5098743;28;19934;-88
2022/01/15 18:25:20;;;;;;;;;;;3.00;99.90;;;;;;5128561;27;19924;-83
2022/01/15 18:27:47;;;;;;;;;;;3.00;99.90;;;;;;5107373;28;19931;-87
2022/01/15 18:30:14;;;;;;;;;;;3.00;99.90;;;;;;5009194;28;19934;-88
2022/01/15 18:32:41;;;;;;;;;;;3.10;99.90;;;;;;4818622;29;19931;-86
2022/01/15 18:35:08;;;;;;;;;;;3.10;99.90;;;;;;4610990;30;19933;-84
2022/01/15 18:42:41;;;;;;;;;;;3.10;99.90;;;;;;5154888;27;19927;-87
2022/01/15 18:45:09;;;;;;;;;;;3.10;99.90;;;;;;5116555;27;19923;-86
2022/01/15 18:47:35;;;;;;;;;;;3.10;99.90;;;;;;5115997;27;19957;-84
2022/01/15 18:50:03;;;;;;;;;;;3.20;99.90;;;;;;5087502;28;20011;-86
2022/01/15 18:52:30;;;;;;;;;;;3.30;99.90;;;;;;5007694;28;19934;-86
2022/01/15 18:54:57;;;;;;;;;;;3.40;99.90;;;;;;4852453;29;19930;-85